Svitzer Hamilton — VJSH — position and weather

sailwx.info

Track history (hours):
 
Tides and Currents Weather Stations Pressure Air Temp Water Temp Dewpoint Dewpoint Depression Visibility Wind Speed Wind Dir Waves Ship Positions

Svitzer Hamilton

Last reported at 2017-Sep-19 10:23 UTC. Time now 2017-Sep-19 11:49 UTC.
Position S 32°54' E 151°46'.

Length 25 m; draft 5.4 m.

Type: Tug. MMSI: 503544000.

Date/timePositionNaut miles runAvg speedWind from/ knotsBaromVisibWave heightAir tempDewpointWater temp
2017-Sep-19 10:23S 32°54' E 151°46'2 0.2
2017-Sep-19 02:53S 32°55' E 151°46'0 0.0
2017-Sep-19 02:25S 32°55' E 151°46'0 0.0
2017-Sep-19 02:00S 32°55' E 151°46'0 0.0
2017-Sep-18 16:24S 32°55' E 151°46'0 0.0
2017-Sep-18 15:56S 32°55' E 151°46'0 0.0
2017-Sep-18 15:30S 32°55' E 151°46'0 0.0
2017-Sep-18 14:41S 32°55' E 151°46'0 0.0
2017-Sep-18 13:46S 32°55' E 151°46'1 0.1
2017-Sep-18 07:11S 32°55' E 151°47'1 2.9
2017-Sep-18 07:00S 32°55' E 151°46'0 0.0
2017-Sep-17 20:44S 32°55' E 151°46'2 0.1
2017-Sep-17 07:01S 32°53' E 151°46'010.1
2017-Sep-17 07:00S 32°53' E 151°46'0 0.0
2017-Sep-16 23:22S 32°54' E 151°46'1 0.1
2017-Sep-16 03:53S 32°55' E 151°46'1 0.3
2017-Sep-16 00:21S 32°54' E 151°46'2 4.4
2017-Sep-15 23:55S 32°55' E 151°47'0 0.3
2017-Sep-15 23:20S 32°55' E 151°47'2 0.1
2017-Sep-14 11:44S 32°53' E 151°46'0 0.0
2017-Sep-13 22:38S 32°53' E 151°46'0 3.2
2017-Sep-13 22:30S 32°54' E 151°46'2 3.6
2017-Sep-13 21:53S 32°54' E 151°49'3 0.3
2017-Sep-13 14:14S 32°55' E 151°46'1 0.1
2017-Sep-13 03:12S 32°55' E 151°47'1 0.1
2017-Sep-12 19:03S 32°55' E 151°46'0 0.0
2017-Sep-12 18:54S 32°55' E 151°46'0 0.0
2017-Sep-12 18:28S 32°55' E 151°46'0 0.0
2017-Sep-12 18:00S 32°55' E 151°46'2 2.9
2017-Sep-12 17:25S 32°55' E 151°48'2 2.8
2017-Sep-12 16:49S 32°54' E 151°46'1 1.9
2017-Sep-12 16:27S 32°53' E 151°46'1 0.6
2017-Sep-12 15:11S 32°54' E 151°46'1 3.9
2017-Sep-12 14:50S 32°55' E 151°47'1 4.0
2017-Sep-12 14:29S 32°54' E 151°46'1 2.8
2017-Sep-12 14:00S 32°53' E 151°45'1 1.9
2017-Sep-12 13:17S 32°54' E 151°46'1 4.1
2017-Sep-12 12:59S 32°55' E 151°46'0 0.0
2017-Sep-12 08:11S 32°55' E 151°46'0 0.0
2017-Sep-11 16:38S 32°55' E 151°46'0 0.0
2017-Sep-11 16:22S 32°55' E 151°46'0 0.0
2017-Sep-11 14:54S 32°55' E 151°46'0 0.0
2017-Sep-11 13:21S 32°55' E 151°46'0 0.0
2017-Sep-11 12:59S 32°55' E 151°46'0 0.0
2017-Sep-11 09:02S 32°55' E 151°46'0 3.0
2017-Sep-11 08:57S 32°55' E 151°46'0 1.0
2017-Sep-11 08:30S 32°55' E 151°47'1 1.6
2017-Sep-11 08:00S 32°54' E 151°46'1 0.1
2017-Sep-11 02:20S 32°54' E 151°46'  
Track history (hours):
 
Tides and Currents Weather Stations Pressure Air Temp Water Temp Dewpoint Dewpoint Depression Visibility Wind Speed Wind Dir Waves Ship Positions

Svitzer Hamilton

Last reported at 2017-Sep-19 10:23 UTC. Time now 2017-Sep-19 11:49 UTC.
Position S 32°54' E 151°46'.

Length 25 m; draft 5.4 m.

Type: Tug. MMSI: 503544000.

Date/timePositionNaut miles runAvg speedWind from/ knotsBaromVisibWave heightAir tempDewpointWater temp
2017-Sep-19 10:23S 32°54' E 151°46'2 0.2
2017-Sep-19 02:53S 32°55' E 151°46'0 0.0
2017-Sep-19 02:25S 32°55' E 151°46'0 0.0
2017-Sep-19 02:00S 32°55' E 151°46'0 0.0
2017-Sep-18 16:24S 32°55' E 151°46'0 0.0
2017-Sep-18 15:56S 32°55' E 151°46'0 0.0
2017-Sep-18 15:30S 32°55' E 151°46'0 0.0
2017-Sep-18 14:41S 32°55' E 151°46'0 0.0
2017-Sep-18 13:46S 32°55' E 151°46'1 0.1
2017-Sep-18 07:11S 32°55' E 151°47'1 2.9
2017-Sep-18 07:00S 32°55' E 151°46'0 0.0
2017-Sep-17 20:44S 32°55' E 151°46'2 0.1
2017-Sep-17 07:01S 32°53' E 151°46'010.1
2017-Sep-17 07:00S 32°53' E 151°46'0 0.0
2017-Sep-16 23:22S 32°54' E 151°46'1 0.1
2017-Sep-16 03:53S 32°55' E 151°46'1 0.3
2017-Sep-16 00:21S 32°54' E 151°46'2 4.4
2017-Sep-15 23:55S 32°55' E 151°47'0 0.3
2017-Sep-15 23:20S 32°55' E 151°47'2 0.1
2017-Sep-14 11:44S 32°53' E 151°46'0 0.0
2017-Sep-13 22:38S 32°53' E 151°46'0 3.2
2017-Sep-13 22:30S 32°54' E 151°46'2 3.6
2017-Sep-13 21:53S 32°54' E 151°49'3 0.3
2017-Sep-13 14:14S 32°55' E 151°46'1 0.1
2017-Sep-13 03:12S 32°55' E 151°47'1 0.1
2017-Sep-12 19:03S 32°55' E 151°46'0 0.0
2017-Sep-12 18:54S 32°55' E 151°46'0 0.0
2017-Sep-12 18:28S 32°55' E 151°46'0 0.0
2017-Sep-12 18:00S 32°55' E 151°46'2 2.9
2017-Sep-12 17:25S 32°55' E 151°48'2 2.8
2017-Sep-12 16:49S 32°54' E 151°46'1 1.9
2017-Sep-12 16:27S 32°53' E 151°46'1 0.6
2017-Sep-12 15:11S 32°54' E 151°46'1 3.9
2017-Sep-12 14:50S 32°55' E 151°47'1 4.0
2017-Sep-12 14:29S 32°54' E 151°46'1 2.8
2017-Sep-12 14:00S 32°53' E 151°45'1 1.9
2017-Sep-12 13:17S 32°54' E 151°46'1 4.1
2017-Sep-12 12:59S 32°55' E 151°46'0 0.0
2017-Sep-12 08:11S 32°55' E 151°46'0 0.0
2017-Sep-11 16:38S 32°55' E 151°46'0 0.0
2017-Sep-11 16:22S 32°55' E 151°46'0 0.0
2017-Sep-11 14:54S 32°55' E 151°46'0 0.0
2017-Sep-11 13:21S 32°55' E 151°46'0 0.0
2017-Sep-11 12:59S 32°55' E 151°46'0 0.0
2017-Sep-11 09:02S 32°55' E 151°46'0 3.0
2017-Sep-11 08:57S 32°55' E 151°46'0 1.0
2017-Sep-11 08:30S 32°55' E 151°47'1 1.6
2017-Sep-11 08:00S 32°54' E 151°46'1 0.1
2017-Sep-11 02:20S 32°54' E 151°46'  

Dump ship's entire track history